createdAt,value
2023-04-25T00:02:13.630Z,0.20
2023-04-25T00:04:41.120Z,0.20
2023-04-25T00:07:08.240Z,0.20
2023-04-25T00:09:35.103Z,0.20
2023-04-25T00:12:02.333Z,0.22
2023-04-25T00:14:30.316Z,0.20
2023-04-25T00:16:57.136Z,0.20
2023-04-25T00:19:23.859Z,0.30
2023-04-25T00:21:50.915Z,0.22
2023-04-25T00:24:17.607Z,0.20
2023-04-25T00:26:44.191Z,0.30
2023-04-25T00:29:10.916Z,0.20
2023-04-25T00:31:38.338Z,0.20
2023-04-25T00:34:04.971Z,0.30
2023-04-25T00:36:31.617Z,0.20
2023-04-25T00:38:58.296Z,0.10
2023-04-25T00:41:26.887Z,0.20
2023-04-25T00:43:54.976Z,0.30
2023-04-25T00:46:21.736Z,0.20
2023-04-25T00:48:48.383Z,0.40
2023-04-25T00:51:17.491Z,0.20
2023-04-25T00:53:44.356Z,0.20
2023-04-25T00:56:11.039Z,0.25
2023-04-25T00:58:38.449Z,0.25
2023-04-25T01:01:05.309Z,0.20
2023-04-25T01:03:34.400Z,0.15
2023-04-25T01:06:01.372Z,0.40
2023-04-25T01:08:28.118Z,0.30
2023-04-25T01:10:54.915Z,0.20
2023-04-25T01:13:21.600Z,0.30
2023-04-25T01:15:48.740Z,0.30
2023-04-25T01:18:15.377Z,0.30
2023-04-25T01:20:42.753Z,0.10
2023-04-25T01:23:09.517Z,0.30
2023-04-25T01:25:36.315Z,0.28
2023-04-25T01:28:03.000Z,0.20
2023-04-25T01:30:30.158Z,0.20
2023-04-25T01:32:57.680Z,0.20
2023-04-25T01:35:25.281Z,0.30
2023-04-25T01:37:54.280Z,0.30
2023-04-25T01:40:22.027Z,0.20
2023-04-25T01:42:48.638Z,0.30
2023-04-25T01:45:15.956Z,0.30
2023-04-25T01:47:44.604Z,0.20
2023-04-25T01:50:12.231Z,0.20
2023-04-25T01:52:39.441Z,0.20
2023-04-25T01:55:07.406Z,0.47
2023-04-25T01:57:36.581Z,0.10
2023-04-25T02:00:07.770Z,0.17
2023-04-25T02:02:40.294Z,0.20
2023-04-25T02:05:22.611Z,0.22
2023-04-25T02:07:50.107Z,0.20
2023-04-25T02:10:16.778Z,0.28
2023-04-25T02:13:07.282Z,0.20
2023-04-25T02:16:09.147Z,0.20
2023-04-25T02:18:38.748Z,0.20
2023-04-25T02:21:06.897Z,0.38
2023-04-25T02:23:33.736Z,0.17
2023-04-25T02:26:00.543Z,0.20
2023-04-25T02:28:27.488Z,0.22
2023-04-25T02:30:54.147Z,0.10
2023-04-25T02:33:21.996Z,0.28
2023-04-25T02:35:48.893Z,0.20
2023-04-25T02:38:15.654Z,0.28
2023-04-25T02:40:42.543Z,0.20
2023-04-25T02:43:09.229Z,0.20
2023-04-25T02:45:36.192Z,0.10
2023-04-25T02:48:04.099Z,0.25
2023-04-25T02:50:32.415Z,0.20
2023-04-25T02:52:59.209Z,0.25
2023-04-25T02:55:30.657Z,0.20
2023-04-25T02:57:58.202Z,0.20
2023-04-25T03:00:37.032Z,0.20
2023-04-25T03:03:03.873Z,0.30
2023-04-25T03:05:30.595Z,0.20
2023-04-25T03:07:57.351Z,0.28
2023-04-25T03:10:24.392Z,0.20
2023-04-25T03:12:51.271Z,0.20
2023-04-25T03:15:18.032Z,0.20
2023-04-25T03:17:44.688Z,0.20
2023-04-25T03:20:11.726Z,0.20
2023-04-25T03:22:38.405Z,0.20
2023-04-25T03:25:05.911Z,0.20
2023-04-25T03:27:32.595Z,0.30
2023-04-25T03:29:59.177Z,1.42
2023-04-25T03:32:26.017Z,0.30
2023-04-25T03:34:52.698Z,0.20
2023-04-25T03:37:19.331Z,0.30
2023-04-25T03:39:46.033Z,0.55
2023-04-25T03:42:12.922Z,0.35
2023-04-25T03:44:39.519Z,0.40
2023-04-25T03:47:07.101Z,0.60
2023-04-25T03:49:35.188Z,0.45
2023-04-25T03:52:03.848Z,0.40
2023-04-25T03:54:36.967Z,0.40
2023-04-25T03:57:07.163Z,0.17
2023-04-25T03:59:37.379Z,0.30
2023-04-25T04:02:04.045Z,0.30
2023-04-25T04:04:32.727Z,0.30
2023-04-25T04:07:00.832Z,0.20
2023-04-25T04:09:31.016Z,0.30
2023-04-25T04:11:59.744Z,0.50
2023-04-25T04:14:26.893Z,0.30
2023-04-25T04:16:55.556Z,0.20
2023-04-25T04:19:23.118Z,0.40
2023-04-25T04:22:02.999Z,0.28
2023-04-25T04:24:29.779Z,0.43
2023-04-25T04:27:01.522Z,0.38
2023-04-25T04:29:37.606Z,0.43
2023-04-25T04:32:14.308Z,0.20
2023-04-25T04:34:42.109Z,0.20
2023-04-25T04:37:09.187Z,0.20
2023-04-25T04:39:36.951Z,0.40
2023-04-25T04:42:26.649Z,0.20
2023-04-25T04:45:02.502Z,0.30
2023-04-25T04:47:46.712Z,0.40
2023-04-25T04:50:36.643Z,0.28
2023-04-25T04:56:21.745Z,0.20
2023-04-25T04:59:08.630Z,0.43
2023-04-25T05:02:01.570Z,0.30
2023-04-25T05:04:48.502Z,0.20
2023-04-25T05:07:29.920Z,0.20
2023-04-25T05:10:10.131Z,0.50
2023-04-25T05:12:55.255Z,0.98
2023-04-25T05:15:39.776Z,0.73
2023-04-25T05:18:22.455Z,0.35
2023-04-25T05:21:13.504Z,0.40
2023-04-25T05:23:55.452Z,0.70
2023-04-25T05:26:45.201Z,0.55
2023-04-25T05:29:30.516Z,1.25
2023-04-25T05:32:06.364Z,0.50
2023-04-25T05:34:33.138Z,0.75
2023-04-25T05:37:02.669Z,0.98
2023-04-25T05:39:30.656Z,0.80
2023-04-25T05:42:09.223Z,0.70
2023-04-25T05:45:14.100Z,0.88
2023-04-25T05:48:13.026Z,1.20
2023-04-25T05:50:58.060Z,1.25
2023-04-25T05:53:44.957Z,0.98
2023-04-25T05:56:13.549Z,0.93
2023-04-25T05:58:41.148Z,0.80
2023-04-25T06:01:10.380Z,0.70
2023-04-25T06:03:39.008Z,0.75
2023-04-25T06:06:06.187Z,0.90
2023-04-25T06:08:33.200Z,0.68
2023-04-25T06:10:59.793Z,0.70
2023-04-25T06:13:26.401Z,0.90
2023-04-25T06:15:53.349Z,1.00
2023-04-25T06:18:20.414Z,1.50
2023-04-25T06:20:47.184Z,1.42
2023-04-25T06:23:13.790Z,0.95
2023-04-25T06:25:50.695Z,0.90
2023-04-25T06:28:17.433Z,0.90
2023-04-25T06:30:44.704Z,0.70
2023-04-25T06:33:14.738Z,0.98
2023-04-25T06:35:42.063Z,0.93
2023-04-25T06:38:11.621Z,0.85
2023-04-25T06:40:40.307Z,1.15
2023-04-25T06:43:08.512Z,0.80
2023-04-25T06:45:57.892Z,0.70
2023-04-25T06:48:28.239Z,0.82
2023-04-25T06:50:55.314Z,1.00
2023-04-25T06:53:21.990Z,0.77
2023-04-25T06:55:54.638Z,1.42
2023-04-25T06:58:23.381Z,0.80
2023-04-25T07:01:16.509Z,0.50
2023-04-25T07:03:43.320Z,0.50
2023-04-25T07:06:15.557Z,0.70
2023-04-25T07:08:42.387Z,0.88
2023-04-25T07:11:09.048Z,0.40
2023-04-25T07:13:37.422Z,0.88
2023-04-25T07:16:04.532Z,0.90
2023-04-25T07:18:33.688Z,0.95
2023-04-25T07:21:01.314Z,0.80
2023-04-25T07:23:28.701Z,0.80
2023-04-25T07:25:55.768Z,0.80
2023-04-25T07:28:25.455Z,0.82
2023-04-25T07:30:52.045Z,1.30
2023-04-25T07:33:21.275Z,0.85
2023-04-25T07:35:47.887Z,1.02
2023-04-25T07:38:15.065Z,0.52
2023-04-25T07:40:41.668Z,0.77
2023-04-25T07:43:09.869Z,0.55
2023-04-25T07:45:48.045Z,0.55
2023-04-25T07:48:20.204Z,0.47
2023-04-25T07:50:47.899Z,0.80
2023-04-25T07:53:15.615Z,1.08
2023-04-25T07:55:48.401Z,0.90
2023-04-25T07:58:22.068Z,0.70
2023-04-25T08:00:51.392Z,0.70
2023-04-25T08:03:44.157Z,0.82
2023-04-25T08:06:18.940Z,0.65
2023-04-25T08:08:57.959Z,1.23
2023-04-25T08:11:32.194Z,1.15
2023-04-25T08:13:58.927Z,0.98
2023-04-25T08:16:27.055Z,0.82
2023-04-25T08:18:54.047Z,1.35
2023-04-25T08:21:21.294Z,1.17
2023-04-25T08:23:48.126Z,0.80
2023-04-25T08:26:23.692Z,1.05
2023-04-25T08:28:51.588Z,1.02
2023-04-25T08:31:18.487Z,1.00
2023-04-25T08:33:58.462Z,0.52
2023-04-25T08:36:39.412Z,0.90
2023-04-25T08:39:18.583Z,0.90
2023-04-25T08:42:04.675Z,0.70
2023-04-25T08:44:31.622Z,0.80
2023-04-25T08:46:58.533Z,0.88
2023-04-25T08:49:35.833Z,0.68
2023-04-25T08:52:06.777Z,0.75
2023-04-25T08:54:37.269Z,0.85
2023-04-25T08:57:07.625Z,1.20
2023-04-25T08:59:35.182Z,0.75
2023-04-25T09:02:02.884Z,1.95
2023-04-25T09:04:34.606Z,1.30
2023-04-25T09:07:01.322Z,0.80
2023-04-25T09:09:30.390Z,0.60
2023-04-25T09:11:57.421Z,0.77
2023-04-25T09:14:26.828Z,0.80
2023-04-25T09:17:13.851Z,0.75
2023-04-25T09:20:13.666Z,0.70
2023-04-25T09:22:41.013Z,0.65
2023-04-25T09:25:12.311Z,0.50
2023-04-25T09:27:51.989Z,0.60
2023-04-25T09:30:36.054Z,0.70
2023-04-25T09:33:12.464Z,0.60
2023-04-25T09:35:44.403Z,0.80
2023-04-25T09:38:19.499Z,0.47
2023-04-25T09:40:57.666Z,0.50
2023-04-25T09:43:34.316Z,0.52
2023-04-25T09:46:01.768Z,0.77
2023-04-25T09:48:30.469Z,0.30
2023-04-25T09:51:11.409Z,0.70
2023-04-25T09:53:40.308Z,0.55
2023-04-25T09:56:27.747Z,0.45
2023-04-25T09:58:55.715Z,0.40
2023-04-25T10:01:22.789Z,0.28
2023-04-25T10:04:11.837Z,0.47
2023-04-25T10:06:54.503Z,0.40
2023-04-25T10:09:22.335Z,0.50
2023-04-25T10:11:49.115Z,0.38
2023-04-25T10:14:15.919Z,0.70
2023-04-25T10:16:42.975Z,0.60
2023-04-25T10:19:10.964Z,0.30
2023-04-25T10:21:46.043Z,0.60
2023-04-25T10:24:12.786Z,0.47
2023-04-25T10:26:39.843Z,0.30
2023-04-25T10:29:06.579Z,0.50
2023-04-25T10:31:33.530Z,0.50
2023-04-25T10:34:01.579Z,0.43
2023-04-25T10:36:32.902Z,0.35
2023-04-25T10:39:07.792Z,0.82
2023-04-25T10:44:12.919Z,0.30
2023-04-25T10:46:39.532Z,0.43
2023-04-25T10:49:06.311Z,0.22
2023-04-25T10:51:50.882Z,0.30
2023-04-25T10:54:21.165Z,0.50
2023-04-25T10:56:49.619Z,0.40
2023-04-25T10:59:17.788Z,0.50
2023-04-25T11:01:50.066Z,0.40
2023-04-25T11:04:37.062Z,0.30
2023-04-25T11:07:07.998Z,0.32
2023-04-25T11:09:36.822Z,0.45
2023-04-25T11:12:03.547Z,0.43
2023-04-25T11:14:30.189Z,0.40
2023-04-25T11:17:00.353Z,0.38
2023-04-25T11:19:28.724Z,0.38
2023-04-25T11:21:59.513Z,0.40
2023-04-25T11:24:35.527Z,0.30
2023-04-25T11:27:06.686Z,0.40
2023-04-25T11:29:34.957Z,0.40
2023-04-25T11:32:02.295Z,0.30
2023-04-25T11:34:34.095Z,0.98
2023-04-25T11:37:02.917Z,0.40
2023-04-25T11:39:30.166Z,0.40
2023-04-25T11:41:58.186Z,0.20
2023-04-25T11:44:25.281Z,0.20
2023-04-25T11:46:51.888Z,0.65
2023-04-25T11:49:19.502Z,0.68
2023-04-25T11:51:48.377Z,0.70
2023-04-25T11:54:16.310Z,0.40
2023-04-25T11:56:43.827Z,0.73
2023-04-25T11:59:11.516Z,0.30
2023-04-25T12:01:40.571Z,0.60
2023-04-25T12:04:14.913Z,0.50
2023-04-25T12:06:42.858Z,1.50
2023-04-25T12:09:11.931Z,0.63
2023-04-25T12:11:56.984Z,0.80
2023-04-25T12:14:28.196Z,0.60
2023-04-25T12:17:00.554Z,0.75
2023-04-25T12:19:34.415Z,0.60
2023-04-25T12:22:02.169Z,0.70
2023-04-25T12:24:29.172Z,0.60
2023-04-25T12:27:04.580Z,1.10
2023-04-25T12:29:41.896Z,0.93
2023-04-25T12:32:14.869Z,0.45
2023-04-25T12:34:41.567Z,0.40
2023-04-25T12:37:08.454Z,0.85
2023-04-25T12:39:35.165Z,0.68
2023-04-25T12:42:01.912Z,0.73
2023-04-25T12:44:28.527Z,1.08
2023-04-25T12:46:55.923Z,2.33
2023-04-25T12:49:23.306Z,0.80
2023-04-25T12:51:50.219Z,1.00
2023-04-25T12:54:16.912Z,0.63
2023-04-25T12:56:43.675Z,0.73
2023-04-25T12:59:10.481Z,1.02
2023-04-25T13:01:37.494Z,0.60
2023-04-25T13:04:04.408Z,0.60
2023-04-25T13:06:31.913Z,0.60
2023-04-25T13:08:58.784Z,0.65
2023-04-25T13:11:25.545Z,0.50
2023-04-25T13:13:52.494Z,0.40
2023-04-25T13:16:21.774Z,0.50
2023-04-25T13:18:48.543Z,0.40
2023-04-25T13:21:15.563Z,0.40
2023-04-25T13:23:43.799Z,0.70
2023-04-25T13:26:10.524Z,0.60
2023-04-25T13:28:37.121Z,0.65
2023-04-25T13:31:03.744Z,0.50
2023-04-25T13:33:30.697Z,0.55
2023-04-25T13:35:58.203Z,0.43
2023-04-25T13:38:25.640Z,0.38
2023-04-25T13:40:53.635Z,0.40
2023-04-25T13:43:21.786Z,0.60
2023-04-25T13:45:49.727Z,0.50
2023-04-25T13:48:16.290Z,0.70
2023-04-25T13:50:42.885Z,0.63
2023-04-25T13:53:09.523Z,0.68
2023-04-25T13:55:37.774Z,0.40
2023-04-25T13:58:10.988Z,0.60
2023-04-25T14:00:39.982Z,0.70
2023-04-25T14:03:08.824Z,0.60
2023-04-25T14:05:39.101Z,0.77
2023-04-25T14:08:09.779Z,0.50
2023-04-25T14:10:36.993Z,0.50
2023-04-25T14:13:04.267Z,0.50
2023-04-25T14:15:34.726Z,0.68
2023-04-25T14:18:02.087Z,0.40
2023-04-25T14:20:28.903Z,0.70
2023-04-25T14:22:57.024Z,0.50
2023-04-25T14:25:24.157Z,0.60
2023-04-25T14:27:51.083Z,0.85
2023-04-25T14:30:19.715Z,0.52
2023-04-25T14:32:46.609Z,1.00
2023-04-25T14:35:13.746Z,0.90
2023-04-25T14:37:40.473Z,0.73
2023-04-25T14:40:11.422Z,0.85
2023-04-25T14:42:38.468Z,0.93
2023-04-25T14:45:06.219Z,1.00
2023-04-25T14:47:33.096Z,1.35
2023-04-25T14:49:59.984Z,0.68
2023-04-25T14:52:26.758Z,1.00
2023-04-25T14:54:53.461Z,1.58
2023-04-25T14:57:20.197Z,1.17
2023-04-25T14:59:46.841Z,1.23
2023-04-25T15:02:13.782Z,1.48
2023-04-25T15:04:40.674Z,0.80
2023-04-25T15:07:07.331Z,1.08
2023-04-25T15:09:33.861Z,1.85
2023-04-25T15:12:00.547Z,1.90
2023-04-25T15:14:27.131Z,1.55
2023-04-25T15:16:53.904Z,0.98
2023-04-25T15:19:21.045Z,1.50
2023-04-25T15:21:48.320Z,2.42
2023-04-25T15:24:16.087Z,1.77
2023-04-25T15:26:42.802Z,0.93
2023-04-25T15:29:09.388Z,1.23
2023-04-25T15:31:36.634Z,0.90
2023-04-25T15:34:03.420Z,1.00
2023-04-25T15:36:31.298Z,1.10
2023-04-25T15:38:58.211Z,0.90
2023-04-25T15:41:26.262Z,0.80
2023-04-25T15:43:53.618Z,1.08
2023-04-25T15:46:21.850Z,0.90
2023-04-25T15:48:48.493Z,0.80
2023-04-25T15:51:15.632Z,0.80
2023-04-25T15:53:42.169Z,1.13
2023-04-25T15:56:08.876Z,0.80
2023-04-25T15:58:36.223Z,0.80
2023-04-25T16:01:04.822Z,0.82
2023-04-25T16:03:33.724Z,0.45
2023-04-25T16:06:02.974Z,0.60
2023-04-25T16:08:29.799Z,0.60
2023-04-25T16:10:57.367Z,0.70
2023-04-25T16:13:23.947Z,0.77
2023-04-25T16:15:50.807Z,0.50
2023-04-25T16:18:17.888Z,0.80
2023-04-25T16:20:44.823Z,0.60
2023-04-25T16:23:11.427Z,0.75
2023-04-25T16:25:38.197Z,0.55
2023-04-25T16:28:04.826Z,0.50
2023-04-25T16:30:31.608Z,0.40
2023-04-25T16:32:58.316Z,0.60
2023-04-25T16:35:25.425Z,0.40
2023-04-25T16:37:52.114Z,0.60
2023-04-25T16:40:18.823Z,0.40
2023-04-25T16:42:45.401Z,0.43
2023-04-25T16:45:13.812Z,0.75
2023-04-25T16:47:40.430Z,0.30
2023-04-25T16:50:07.625Z,0.20
2023-04-25T16:52:34.220Z,0.40
2023-04-25T16:55:01.434Z,0.40
2023-04-25T16:57:28.100Z,0.57
2023-04-25T16:59:54.727Z,0.77
2023-04-25T17:02:21.473Z,0.40
2023-04-25T17:04:48.123Z,0.47
2023-04-25T17:07:15.878Z,0.40
2023-04-25T17:09:42.525Z,0.20
2023-04-25T17:12:09.098Z,0.30
2023-04-25T17:14:37.133Z,0.40
2023-04-25T17:17:03.994Z,0.30
2023-04-25T17:19:31.657Z,0.25
2023-04-25T17:21:58.288Z,0.50
2023-04-25T17:24:25.010Z,0.22
2023-04-25T17:26:51.577Z,0.63
2023-04-25T17:29:19.065Z,0.40
2023-04-25T17:31:45.769Z,0.40
2023-04-25T17:34:17.799Z,0.47
2023-04-25T17:36:48.077Z,0.43
2023-04-25T17:39:17.609Z,0.30
2023-04-25T17:41:44.996Z,0.38
2023-04-25T17:44:11.950Z,0.30
2023-04-25T17:46:38.922Z,0.45
2023-04-25T17:49:06.095Z,0.28
2023-04-25T17:51:32.922Z,0.38
2023-04-25T17:53:59.547Z,0.52
2023-04-25T17:56:27.582Z,0.32
2023-04-25T17:58:55.196Z,0.40
2023-04-25T18:01:22.529Z,0.60
2023-04-25T18:03:49.923Z,0.30
2023-04-25T18:06:17.991Z,0.40
2023-04-25T18:08:44.850Z,0.30
2023-04-25T18:11:11.973Z,0.30
2023-04-25T18:13:39.575Z,0.30
2023-04-25T18:16:06.806Z,0.43
2023-04-25T18:18:35.737Z,0.20
2023-04-25T18:21:04.990Z,0.38
2023-04-25T18:23:33.707Z,0.40
2023-04-25T18:26:00.560Z,0.30
2023-04-25T18:28:27.250Z,0.40
2023-04-25T18:30:54.260Z,0.22
2023-04-25T18:33:24.086Z,0.32
2023-04-25T18:35:58.217Z,0.40
2023-04-25T18:41:01.370Z,0.32
2023-04-25T18:43:37.032Z,0.43
2023-04-25T18:46:03.649Z,0.20
2023-04-25T18:48:30.291Z,0.20
2023-04-25T18:50:56.813Z,0.40
2023-04-25T18:53:23.518Z,0.30
2023-04-25T18:55:50.052Z,0.30
2023-04-25T18:58:17.205Z,0.45
2023-04-25T19:00:43.833Z,0.30
2023-04-25T19:03:10.820Z,0.40
2023-04-25T19:05:37.471Z,0.20
2023-04-25T19:08:04.320Z,0.40
2023-04-25T19:10:30.951Z,0.30
2023-04-25T19:12:57.570Z,0.32
2023-04-25T19:15:24.196Z,0.30
2023-04-25T19:17:51.501Z,0.20
2023-04-25T19:20:18.373Z,0.20
2023-04-25T19:22:45.080Z,0.30
2023-04-25T19:25:11.686Z,0.40
2023-04-25T19:27:38.812Z,0.28
2023-04-25T19:30:09.058Z,0.30
2023-04-25T19:32:35.952Z,0.40
2023-04-25T19:35:03.917Z,0.30
2023-04-25T19:37:30.913Z,0.20
2023-04-25T19:39:57.609Z,0.30
2023-04-25T19:42:24.230Z,0.30
2023-04-25T19:44:51.558Z,0.20
2023-04-25T19:47:18.207Z,0.30
2023-04-25T19:49:44.863Z,0.30
2023-04-25T19:52:14.903Z,0.20
2023-04-25T19:54:42.173Z,0.20
2023-04-25T19:57:09.494Z,0.40
2023-04-25T19:59:36.145Z,0.40
2023-04-25T20:02:04.717Z,0.30
2023-04-25T20:04:31.620Z,0.20
2023-04-25T20:06:58.948Z,0.20
2023-04-25T20:09:26.106Z,0.65
2023-04-25T20:11:53.091Z,0.28
2023-04-25T20:14:20.419Z,0.40
2023-04-25T20:16:47.751Z,0.50
2023-04-25T20:19:14.474Z,0.30
2023-04-25T20:21:41.160Z,0.57
2023-04-25T20:24:08.561Z,0.30
2023-04-25T20:26:35.562Z,0.20
2023-04-25T20:29:02.199Z,0.47
2023-04-25T20:31:29.991Z,0.28
2023-04-25T20:33:56.631Z,0.40
2023-04-25T20:36:23.243Z,0.50
2023-04-25T20:38:50.060Z,0.20
2023-04-25T20:41:16.914Z,0.20
2023-04-25T20:43:43.551Z,0.30
2023-04-25T20:46:10.332Z,0.20
2023-04-25T20:48:37.010Z,0.43
2023-04-25T20:51:04.031Z,0.32
2023-04-25T20:53:30.615Z,0.30
2023-04-25T20:55:57.425Z,0.28
2023-04-25T20:58:24.142Z,0.30
2023-04-25T21:00:51.270Z,0.30
2023-04-25T21:03:18.062Z,0.30
2023-04-25T21:05:44.800Z,0.22
2023-04-25T21:08:11.348Z,0.22
2023-04-25T21:10:38.017Z,0.38
2023-04-25T21:13:04.607Z,0.30
2023-04-25T21:15:31.285Z,0.45
2023-04-25T21:17:57.863Z,0.38
2023-04-25T21:20:24.625Z,0.32
2023-04-25T21:22:53.872Z,0.20
2023-04-25T21:25:30.794Z,0.30
2023-04-25T21:27:59.570Z,0.45
2023-04-25T21:30:26.381Z,0.30
2023-04-25T21:32:53.229Z,0.28
2023-04-25T21:35:21.393Z,0.40
2023-04-25T21:37:48.368Z,0.35
2023-04-25T21:40:15.133Z,0.30
2023-04-25T21:42:45.827Z,0.40
2023-04-25T21:45:12.432Z,0.40
2023-04-25T21:47:39.263Z,0.30
2023-04-25T21:50:06.290Z,0.20
2023-04-25T21:52:32.944Z,0.40
2023-04-25T21:54:59.481Z,0.20
2023-04-25T21:57:26.307Z,0.20
2023-04-25T21:59:53.432Z,0.20
2023-04-25T22:02:20.200Z,0.30
2023-04-25T22:04:47.549Z,0.20
2023-04-25T22:07:15.136Z,0.30
2023-04-25T22:09:53.623Z,0.30
2023-04-25T22:12:20.807Z,0.30
2023-04-25T22:14:47.503Z,0.38
2023-04-25T22:17:14.129Z,0.20
2023-04-25T22:19:40.671Z,0.25
2023-04-25T22:22:07.577Z,0.30
2023-04-25T22:24:34.437Z,0.30
2023-04-25T22:27:01.000Z,0.22
2023-04-25T22:29:27.881Z,0.30
2023-04-25T22:31:54.527Z,0.40
2023-04-25T22:34:21.428Z,0.17
2023-04-25T22:36:49.240Z,0.20
2023-04-25T22:39:16.688Z,0.40
2023-04-25T22:41:43.493Z,0.20
2023-04-25T22:44:11.088Z,0.30
2023-04-25T22:46:37.857Z,0.30
2023-04-25T22:49:04.891Z,0.40
2023-04-25T22:51:32.187Z,0.30
2023-04-25T22:53:59.169Z,0.10
2023-04-25T22:56:26.984Z,0.45
2023-04-25T22:58:53.944Z,0.35
2023-04-25T23:01:21.087Z,0.40
2023-04-25T23:03:48.473Z,0.28
2023-04-25T23:06:15.289Z,0.30
2023-04-25T23:08:41.888Z,0.20
2023-04-25T23:11:08.889Z,0.20
2023-04-25T23:13:38.769Z,0.30
2023-04-25T23:16:09.504Z,0.40
2023-04-25T23:18:40.276Z,0.30
2023-04-25T23:21:11.464Z,0.30
2023-04-25T23:23:38.716Z,0.30
2023-04-25T23:26:09.262Z,0.38
2023-04-25T23:28:38.736Z,0.30
2023-04-25T23:31:07.313Z,0.30
2023-04-25T23:33:34.489Z,0.35
2023-04-25T23:36:01.337Z,0.30
2023-04-25T23:38:28.223Z,0.20
2023-04-25T23:40:54.780Z,0.30
2023-04-25T23:43:21.513Z,0.30
2023-04-25T23:45:48.120Z,0.30
2023-04-25T23:48:15.508Z,0.45
2023-04-25T23:50:42.273Z,0.20
2023-04-25T23:53:09.722Z,0.30
2023-04-25T23:55:36.385Z,0.30
2023-04-25T23:58:03.718Z,0.30
